Dimitris P — A8ZU5 — position and weather

sailwx.info

Track history (hours):
 
Tides and Currents Weather Stations Pressure Air Temp Water Temp Dewpoint Dewpoint Depression Visibility Wind Speed Wind Dir Waves Ship Positions

Dimitris P

Last reported at 2017-Sep-25 11:07 UTC. Time now 2017-Oct-22 15:44 UTC.
Position N 27°23' W 015°30'.
Warning: this ship's position is 27 days out of date.

Length 274 m; draft 9.5 m.

Type: Ship. MMSI: 636015302.

Date/timePositionNaut miles runAvg speedWind from/ knotsBaromVisibWave heightAir tempDewpointWater temp
2017-Sep-25 11:07N 27°23' W 015°30'213.3
2017-Sep-25 10:58N 27°24' W 015°29'1113.1
2017-Sep-25 10:08N 27°34' W 015°24'313.8
2017-Sep-25 09:56N 27°37' W 015°22'614.5
2017-Sep-25 09:30N 27°42' W 015°19'714.5
2017-Sep-25 09:00N 27°49' W 015°16'713.6
2017-Sep-25 08:31N 27°56' W 015°15'713.4
2017-Sep-25 08:01N 28°02' W 015°15'612.6
2017-Sep-25 07:31N 28°07' W 015°19'2 3.9
2017-Sep-25 07:00N 28°09' W 015°20'4 7.2
2017-Sep-25 06:30N 28°13' W 015°18'611.7
2017-Sep-25 06:00N 28°18' W 015°16'713.1
2017-Sep-25 05:30N 28°25' W 015°14'713.3
2017-Sep-25 05:00N 28°31' W 015°12'713.8
2017-Sep-25 04:30N 28°37' W 015°09'714.0
2017-Sep-25 04:00N 28°44' W 015°06'713.7
2017-Sep-25 03:30N 28°50' W 015°04'713.7
2017-Sep-25 03:00N 28°57' W 015°01'713.6
2017-Sep-25 02:30N 29°03' W 014°59'713.2
2017-Sep-25 02:00N 29°09' W 014°56'713.3
2017-Sep-25 01:30N 29°16' W 014°54'713.4
2017-Sep-25 01:00N 29°22' W 014°51'713.5
2017-Sep-25 00:30N 29°28' W 014°49'713.8
2017-Sep-25 00:00N 29°35' W 014°46'714.0
2017-Sep-24 23:30N 29°42' W 014°44'713.7
2017-Sep-24 22:59N 29°48' W 014°41'613.7
2017-Sep-24 22:31N 29°54' W 014°38'713.4
2017-Sep-24 22:00N 30°01' W 014°35'713.3
2017-Sep-24 21:30N 30°07' W 014°32'713.7
2017-Sep-24 21:00N 30°13' W 014°29'713.7
2017-Sep-24 20:30N 30°19' W 014°26'713.7
2017-Sep-24 19:59N 30°26' W 014°22'613.5
2017-Sep-24 19:30N 30°32' W 014°20'713.4
2017-Sep-24 19:00N 30°38' W 014°17'613.2
2017-Sep-24 18:30N 30°44' W 014°14'712.7
2017-Sep-24 17:57N 30°51' W 014°11'5 8.6
2017-Sep-24 17:25N 30°50' W 014°16'612.6
2017-Sep-24 16:57N 30°55' W 014°15'713.6
2017-Sep-24 16:25N 31°02' W 014°12'613.5
2017-Sep-24 15:58N 31°08' W 014°09'813.6
2017-Sep-24 15:21N 31°16' W 014°06'513.5
2017-Sep-24 14:58N 31°20' W 014°03'613.5
2017-Sep-24 14:30N 31°26' W 014°00'713.4
2017-Sep-24 14:00N 31°32' W 013°56'2 3.8
2017-Sep-24 13:31N 31°30' W 013°54'711.1
2017-Sep-24 12:54N 31°36' W 013°58'614.1
2017-Sep-24 12:30N 31°42' W 013°56'714.1
2017-Sep-24 12:00N 31°49' W 013°53'714.0
2017-Sep-24 11:30N 31°55' W 013°50'713.9
2017-Sep-24 11:00N 32°02' W 013°47'913.8
2017-Sep-24 10:21N 32°10' W 013°44'2014.1
2017-Sep-24 08:57N 32°29' W 013°38'714.0
2017-Sep-24 08:25N 32°36' W 013°36'511.9
2017-Sep-24 08:00N 32°40' W 013°33'3 4.8
2017-Sep-24 07:28N 32°39' W 013°35'612.8
2017-Sep-24 06:58N 32°45' W 013°33'613.1
2017-Sep-24 06:30N 32°51' W 013°31'713.3
2017-Sep-24 06:00N 32°57' W 013°29'713.4
2017-Sep-24 05:30N 33°04' W 013°27'1013.3
2017-Sep-24 04:45N 33°14' W 013°24'513.1
2017-Sep-24 04:21N 33°19' W 013°23'413.3
2017-Sep-24 04:01N 33°23' W 013°21'713.1
2017-Sep-24 03:31N 33°29' W 013°19'713.1
2017-Sep-24 03:00N 33°36' W 013°17'713.0
2017-Sep-24 02:29N 33°42' W 013°15'613.2
2017-Sep-24 02:00N 33°48' W 013°13'713.4
2017-Sep-24 01:30N 33°55' W 013°11'713.4
2017-Sep-24 01:00N 34°01' W 013°09'713.7
2017-Sep-24 00:30N 34°08' W 013°07'713.5
2017-Sep-24 00:00N 34°15' W 013°05'713.5
2017-Sep-23 23:30N 34°21' W 013°03'713.5
2017-Sep-23 23:00N 34°28' W 013°00'713.4
2017-Sep-23 22:30N 34°34' W 012°58'713.5
2017-Sep-23 22:00N 34°41' W 012°56'713.4
2017-Sep-23 21:30N 34°47' W 012°54'713.6
2017-Sep-23 21:00N 34°54' W 012°52'713.7
2017-Sep-23 20:30N 35°00' W 012°50'813.6
2017-Sep-23 19:56N 35°08' W 012°48'  
2017-Sep-20 05:09N 43°56' W 006°11'313.7
2017-Sep-20 04:56N 43°56' W 006°07'613.7
2017-Sep-20 04:30N 43°56' W 005°59'813.7
2017-Sep-20 03:55N 43°56' W 005°48'613.5
2017-Sep-20 03:29N 43°55' W 005°40'713.5
2017-Sep-20 02:56N 43°55' W 005°30'713.6
2017-Sep-20 02:26N 43°54' W 005°20'813.6
2017-Sep-20 01:49N 43°54' W 005°08'1113.7
2017-Sep-20 01:02N 43°53' W 004°54'113.5
2017-Sep-20 00:59N 43°53' W 004°53'1413.7
2017-Sep-19 23:57N 43°52' W 004°33'4213.5
2017-Sep-19 20:51N 43°48' W 003°35'513.4
2017-Sep-19 20:31N 43°45' W 003°31'713.5
2017-Sep-19 20:01N 43°40' W 003°25'713.6
2017-Sep-19 19:31N 43°35' W 003°18'713.5
2017-Sep-19 19:01N 43°30' W 003°12'612.6
2017-Sep-19 18:31N 43°25' W 003°06'3 6.2
2017-Sep-19 18:01N 43°22' W 003°06'0 0.2
2017-Sep-19 17:31N 43°22' W 003°06'0 0.0
2017-Sep-19 16:59N 43°22' W 003°06'0 0.0
2017-Sep-19 16:29N 43°22' W 003°06'0 0.0
2017-Sep-19 15:59N 43°22' W 003°06'0 0.0
2017-Sep-19 12:41N 43°22' W 003°06'0 0.0
2017-Sep-19 12:29N 43°22' W 003°06'0 0.0
2017-Sep-19 11:59N 43°22' W 003°06'0 0.0
2017-Sep-19 11:26N 43°22' W 003°06'0 0.0
2017-Sep-19 10:59N 43°22' W 003°06'0 0.0
2017-Sep-19 10:29N 43°22' W 003°06'0 0.0
2017-Sep-19 09:59N 43°22' W 003°06'0 0.0
2017-Sep-19 09:29N 43°22' W 003°06'0 0.0
2017-Sep-19 08:59N 43°22' W 003°06'0 0.0
2017-Sep-19 08:29N 43°22' W 003°06'0 0.0
2017-Sep-19 07:59N 43°22' W 003°06'0 0.0
2017-Sep-19 07:29N 43°22' W 003°06'0 0.0
2017-Sep-19 06:59N 43°22' W 003°06'0 0.0
2017-Sep-19 06:29N 43°22' W 003°06'0 0.0
2017-Sep-19 05:59N 43°22' W 003°06'0 0.0
2017-Sep-19 05:29N 43°22' W 003°06'0 0.0
2017-Sep-19 04:59N 43°22' W 003°06'0 0.0
2017-Sep-19 04:29N 43°22' W 003°06'0 0.0
2017-Sep-19 03:59N 43°22' W 003°06'0 0.0
2017-Sep-19 03:29N 43°22' W 003°06'0 0.0
2017-Sep-19 02:59N 43°22' W 003°06'0 0.0
2017-Sep-19 02:29N 43°22' W 003°06'0 0.0
2017-Sep-19 01:59N 43°22' W 003°06'0 0.0
2017-Sep-19 01:29N 43°22' W 003°06'0 0.0
2017-Sep-19 00:59N 43°22' W 003°06'0 0.0
2017-Sep-19 00:29N 43°22' W 003°06'0 0.0
2017-Sep-18 23:59N 43°22' W 003°06'0 0.0
2017-Sep-18 23:29N 43°22' W 003°06'0 0.0
2017-Sep-18 22:59N 43°22' W 003°06'0 0.0
2017-Sep-18 22:29N 43°22' W 003°06'0 0.0
2017-Sep-18 21:59N 43°22' W 003°06'0 0.0
2017-Sep-18 21:29N 43°22' W 003°06'0 0.0
2017-Sep-18 20:59N 43°22' W 003°06'0 0.0
2017-Sep-18 20:29N 43°22' W 003°06'0 0.0
2017-Sep-18 19:59N 43°22' W 003°06'0 0.0
2017-Sep-18 19:29N 43°22' W 003°06'0 0.0
2017-Sep-18 18:59N 43°22' W 003°06'0 0.0
2017-Sep-18 18:29N 43°22' W 003°06'0 0.0
2017-Sep-18 17:59N 43°22' W 003°06'0 0.0
2017-Sep-18 17:29N 43°22' W 003°06'0 0.0
2017-Sep-18 16:56N 43°22' W 003°06'0 0.0
2017-Sep-18 16:29N 43°22' W 003°06'0 0.0
2017-Sep-18 15:59N 43°22' W 003°06'0 0.0
2017-Sep-18 15:29N 43°22' W 003°06'0 0.1
2017-Sep-18 15:00N 43°22' W 003°06'1 2.2
2017-Sep-18 14:31N 43°23' W 003°05'1 2.1
2017-Sep-18 13:59N 43°24' W 003°04'0 0.2
2017-Sep-18 13:29N 43°24' W 003°04'0 0.0
2017-Sep-18 12:59N 43°24' W 003°04'0 0.0
2017-Sep-18 12:29N 43°24' W 003°04'0 0.0
2017-Sep-18 11:59N 43°24' W 003°04'0 0.0
2017-Sep-18 11:29N 43°24' W 003°04'0 0.1
2017-Sep-18 10:59N 43°24' W 003°04'0 0.1
2017-Sep-18 10:29N 43°24' W 003°04'0 0.1
2017-Sep-18 09:59N 43°24' W 003°04'0 0.1
2017-Sep-18 09:29N 43°24' W 003°04'0 0.0
2017-Sep-18 08:59N 43°24' W 003°04'0 0.1
2017-Sep-18 08:29N 43°24' W 003°04'0 0.0
2017-Sep-18 07:59N 43°24' W 003°04'0 0.1
2017-Sep-18 07:29N 43°24' W 003°04'0 0.1
2017-Sep-18 06:59N 43°24' W 003°04'0 0.0
2017-Sep-18 06:29N 43°24' W 003°04'0 0.0
2017-Sep-18 05:59N 43°24' W 003°04'0 0.1
2017-Sep-18 05:29N 43°24' W 003°04'0 0.1
2017-Sep-18 04:59N 43°24' W 003°04'0 0.0
2017-Sep-18 04:29N 43°24' W 003°04'0 0.0
2017-Sep-18 03:59N 43°24' W 003°04'0 0.1
2017-Sep-18 03:29N 43°24' W 003°04'0 0.0
2017-Sep-18 02:59N 43°24' W 003°04'0 0.0
2017-Sep-18 02:29N 43°24' W 003°04'0 0.0
2017-Sep-18 01:59N 43°24' W 003°04'0 0.0
2017-Sep-18 01:29N 43°24' W 003°04'0 0.0
2017-Sep-18 00:59N 43°24' W 003°04'0 0.0
2017-Sep-18 00:29N 43°24' W 003°04'0 0.0
2017-Sep-17 23:59N 43°24' W 003°04'0 0.0
2017-Sep-17 23:29N 43°24' W 003°04'0 0.0
2017-Sep-17 22:59N 43°24' W 003°04'0 0.0
2017-Sep-17 22:29N 43°24' W 003°04'0 0.0
2017-Sep-17 21:59N 43°24' W 003°04'0 0.0
2017-Sep-17 21:29N 43°24' W 003°04'0 0.0
2017-Sep-17 20:59N 43°24' W 003°04'0 0.0
2017-Sep-17 20:29N 43°24' W 003°04'0 0.0
2017-Sep-17 19:59N 43°24' W 003°04'0 0.0
2017-Sep-17 19:29N 43°24' W 003°04'0 0.0
2017-Sep-17 18:59N 43°24' W 003°04'0 0.0
2017-Sep-17 18:29N 43°24' W 003°04'0 0.0
2017-Sep-17 17:59N 43°24' W 003°04'0 0.0
2017-Sep-17 17:29N 43°24' W 003°04'0 0.0
2017-Sep-17 16:59N 43°24' W 003°04'0 0.0
2017-Sep-17 16:29N 43°24' W 003°04'0 0.0
2017-Sep-17 15:59N 43°24' W 003°04'0 0.0
2017-Sep-17 15:29N 43°24' W 003°04'0 0.0
2017-Sep-17 14:59N 43°24' W 003°04'0 0.0
2017-Sep-17 14:29N 43°24' W 003°04'0 0.1
2017-Sep-17 13:59N 43°24' W 003°04'0 0.0
2017-Sep-17 13:29N 43°24' W 003°04'0 0.0
2017-Sep-17 12:59N 43°24' W 003°04'0 0.0
2017-Sep-17 12:29N 43°24' W 003°04'0 0.0
2017-Sep-17 11:59N 43°24' W 003°04'0 0.0
2017-Sep-17 11:29N 43°24' W 003°04'0 0.0
2017-Sep-17 10:59N 43°24' W 003°04'0 0.1
2017-Sep-17 10:29N 43°24' W 003°04'0 0.1
2017-Sep-17 09:59N 43°24' W 003°04'0 0.0
2017-Sep-17 09:29N 43°24' W 003°04'0 0.1
2017-Sep-17 08:59N 43°24' W 003°04'0 0.0
2017-Sep-17 08:29N 43°24' W 003°04'0 0.0
2017-Sep-17 07:59N 43°24' W 003°04'0 0.0
2017-Sep-17 07:29N 43°24' W 003°04'0 0.1
2017-Sep-17 06:59N 43°24' W 003°04'0 0.0
2017-Sep-17 06:29N 43°24' W 003°04'0 0.1
2017-Sep-17 05:59N 43°24' W 003°04'0 0.1
2017-Sep-17 05:29N 43°24' W 003°04'0 0.1
2017-Sep-17 04:59N 43°24' W 003°04'0 0.0
2017-Sep-17 04:29N 43°24' W 003°04'0 0.0
2017-Sep-17 03:59N 43°24' W 003°04'0 0.0
2017-Sep-17 03:29N 43°24' W 003°04'0 0.0
2017-Sep-17 02:59N 43°24' W 003°04'0 0.0
2017-Sep-17 02:29N 43°24' W 003°04'0 0.0
2017-Sep-17 01:59N 43°24' W 003°04'0 0.0
2017-Sep-17 01:29N 43°24' W 003°04'0 0.0
2017-Sep-17 00:59N 43°24' W 003°04'0 0.1
2017-Sep-17 00:29N 43°24' W 003°04'0 0.1
2017-Sep-16 23:59N 43°24' W 003°04'0 0.0
2017-Sep-16 23:29N 43°24' W 003°04'0 0.1
2017-Sep-16 22:59N 43°24' W 003°04'0 0.1
2017-Sep-16 22:29N 43°24' W 003°04'0 0.0
2017-Sep-16 21:59N 43°24' W 003°04'0 0.0
2017-Sep-16 21:29N 43°24' W 003°04'0 0.0
2017-Sep-16 20:59N 43°24' W 003°04'0 0.0
2017-Sep-16 20:29N 43°24' W 003°04'0 0.0
2017-Sep-16 19:59N 43°24' W 003°04'0 0.0
2017-Sep-16 19:29N 43°24' W 003°04'0 0.0
2017-Sep-16 18:59N 43°24' W 003°04'0 0.0
2017-Sep-16 18:29N 43°24' W 003°04'0 0.0
2017-Sep-16 17:59N 43°24' W 003°04'0 0.0
2017-Sep-16 17:29N 43°24' W 003°04'0 0.0
2017-Sep-16 16:59N 43°24' W 003°04'0 0.0
2017-Sep-16 16:29N 43°24' W 003°04'0 0.1
2017-Sep-16 15:59N 43°24' W 003°04'0 0.1
2017-Sep-16 15:29N 43°24' W 003°04'0 0.4
2017-Sep-16 14:59N 43°24' W 003°04'2 3.4
2017-Sep-16 14:30N 43°26' W 003°05'5 9.9
2017-Sep-16 14:00N 43°28' W 003°11'4 8.1
2017-Sep-16 13:30N 43°31' W 003°14'611.2
2017-Sep-16 13:00N 43°35' W 003°20'612.6
2017-Sep-16 12:30N 43°40' W 003°25'612.8
2017-Sep-16 12:00N 43°45' W 003°31'712.8
2017-Sep-16 11:29N 43°50' W 003°37'5812.5
2017-Sep-16 06:48N 43°55' W 004°58'412.7
2017-Sep-16 06:30N 43°55' W 005°04'712.7
2017-Sep-16 05:58N 43°55' W 005°13'612.6
2017-Sep-16 05:30N 43°55' W 005°21'612.4
2017-Sep-16 05:00N 43°55' W 005°30'612.3
2017-Sep-16 04:30N 43°56' W 005°38'712.7
2017-Sep-16 03:59N 43°56' W 005°47'712.9
2017-Sep-16 03:27N 43°57' W 005°57'612.8
2017-Sep-16 02:59N 43°57' W 006°05'612.6
2017-Sep-16 02:30N 43°57' W 006°14'  
Track history (hours):
 
Tides and Currents Weather Stations Pressure Air Temp Water Temp Dewpoint Dewpoint Depression Visibility Wind Speed Wind Dir Waves Ship Positions

Dimitris P

Last reported at 2017-Sep-25 11:07 UTC. Time now 2017-Oct-22 15:44 UTC.
Position N 27°23' W 015°30'.
Warning: this ship's position is 27 days out of date.

Length 274 m; draft 9.5 m.

Type: Ship. MMSI: 636015302.

Date/timePositionNaut miles runAvg speedWind from/ knotsBaromVisibWave heightAir tempDewpointWater temp
2017-Sep-25 11:07N 27°23' W 015°30'213.3
2017-Sep-25 10:58N 27°24' W 015°29'1113.1
2017-Sep-25 10:08N 27°34' W 015°24'313.8
2017-Sep-25 09:56N 27°37' W 015°22'614.5
2017-Sep-25 09:30N 27°42' W 015°19'714.5
2017-Sep-25 09:00N 27°49' W 015°16'713.6
2017-Sep-25 08:31N 27°56' W 015°15'713.4
2017-Sep-25 08:01N 28°02' W 015°15'612.6
2017-Sep-25 07:31N 28°07' W 015°19'2 3.9
2017-Sep-25 07:00N 28°09' W 015°20'4 7.2
2017-Sep-25 06:30N 28°13' W 015°18'611.7
2017-Sep-25 06:00N 28°18' W 015°16'713.1
2017-Sep-25 05:30N 28°25' W 015°14'713.3
2017-Sep-25 05:00N 28°31' W 015°12'713.8
2017-Sep-25 04:30N 28°37' W 015°09'714.0
2017-Sep-25 04:00N 28°44' W 015°06'713.7
2017-Sep-25 03:30N 28°50' W 015°04'713.7
2017-Sep-25 03:00N 28°57' W 015°01'713.6
2017-Sep-25 02:30N 29°03' W 014°59'713.2
2017-Sep-25 02:00N 29°09' W 014°56'713.3
2017-Sep-25 01:30N 29°16' W 014°54'713.4
2017-Sep-25 01:00N 29°22' W 014°51'713.5
2017-Sep-25 00:30N 29°28' W 014°49'713.8
2017-Sep-25 00:00N 29°35' W 014°46'714.0
2017-Sep-24 23:30N 29°42' W 014°44'713.7
2017-Sep-24 22:59N 29°48' W 014°41'613.7
2017-Sep-24 22:31N 29°54' W 014°38'713.4
2017-Sep-24 22:00N 30°01' W 014°35'713.3
2017-Sep-24 21:30N 30°07' W 014°32'713.7
2017-Sep-24 21:00N 30°13' W 014°29'713.7
2017-Sep-24 20:30N 30°19' W 014°26'713.7
2017-Sep-24 19:59N 30°26' W 014°22'613.5
2017-Sep-24 19:30N 30°32' W 014°20'713.4
2017-Sep-24 19:00N 30°38' W 014°17'613.2
2017-Sep-24 18:30N 30°44' W 014°14'712.7
2017-Sep-24 17:57N 30°51' W 014°11'5 8.6
2017-Sep-24 17:25N 30°50' W 014°16'612.6
2017-Sep-24 16:57N 30°55' W 014°15'713.6
2017-Sep-24 16:25N 31°02' W 014°12'613.5
2017-Sep-24 15:58N 31°08' W 014°09'813.6
2017-Sep-24 15:21N 31°16' W 014°06'513.5
2017-Sep-24 14:58N 31°20' W 014°03'613.5
2017-Sep-24 14:30N 31°26' W 014°00'713.4
2017-Sep-24 14:00N 31°32' W 013°56'2 3.8
2017-Sep-24 13:31N 31°30' W 013°54'711.1
2017-Sep-24 12:54N 31°36' W 013°58'614.1
2017-Sep-24 12:30N 31°42' W 013°56'714.1
2017-Sep-24 12:00N 31°49' W 013°53'714.0
2017-Sep-24 11:30N 31°55' W 013°50'713.9
2017-Sep-24 11:00N 32°02' W 013°47'913.8
2017-Sep-24 10:21N 32°10' W 013°44'2014.1
2017-Sep-24 08:57N 32°29' W 013°38'714.0
2017-Sep-24 08:25N 32°36' W 013°36'511.9
2017-Sep-24 08:00N 32°40' W 013°33'3 4.8
2017-Sep-24 07:28N 32°39' W 013°35'612.8
2017-Sep-24 06:58N 32°45' W 013°33'613.1
2017-Sep-24 06:30N 32°51' W 013°31'713.3
2017-Sep-24 06:00N 32°57' W 013°29'713.4
2017-Sep-24 05:30N 33°04' W 013°27'1013.3
2017-Sep-24 04:45N 33°14' W 013°24'513.1
2017-Sep-24 04:21N 33°19' W 013°23'413.3
2017-Sep-24 04:01N 33°23' W 013°21'713.1
2017-Sep-24 03:31N 33°29' W 013°19'713.1
2017-Sep-24 03:00N 33°36' W 013°17'713.0
2017-Sep-24 02:29N 33°42' W 013°15'613.2
2017-Sep-24 02:00N 33°48' W 013°13'713.4
2017-Sep-24 01:30N 33°55' W 013°11'713.4
2017-Sep-24 01:00N 34°01' W 013°09'713.7
2017-Sep-24 00:30N 34°08' W 013°07'713.5
2017-Sep-24 00:00N 34°15' W 013°05'713.5
2017-Sep-23 23:30N 34°21' W 013°03'713.5
2017-Sep-23 23:00N 34°28' W 013°00'713.4
2017-Sep-23 22:30N 34°34' W 012°58'713.5
2017-Sep-23 22:00N 34°41' W 012°56'713.4
2017-Sep-23 21:30N 34°47' W 012°54'713.6
2017-Sep-23 21:00N 34°54' W 012°52'713.7
2017-Sep-23 20:30N 35°00' W 012°50'813.6
2017-Sep-23 19:56N 35°08' W 012°48'  
2017-Sep-20 05:09N 43°56' W 006°11'313.7
2017-Sep-20 04:56N 43°56' W 006°07'613.7
2017-Sep-20 04:30N 43°56' W 005°59'813.7
2017-Sep-20 03:55N 43°56' W 005°48'613.5
2017-Sep-20 03:29N 43°55' W 005°40'713.5
2017-Sep-20 02:56N 43°55' W 005°30'713.6
2017-Sep-20 02:26N 43°54' W 005°20'813.6
2017-Sep-20 01:49N 43°54' W 005°08'1113.7
2017-Sep-20 01:02N 43°53' W 004°54'113.5
2017-Sep-20 00:59N 43°53' W 004°53'1413.7
2017-Sep-19 23:57N 43°52' W 004°33'4213.5
2017-Sep-19 20:51N 43°48' W 003°35'513.4
2017-Sep-19 20:31N 43°45' W 003°31'713.5
2017-Sep-19 20:01N 43°40' W 003°25'713.6
2017-Sep-19 19:31N 43°35' W 003°18'713.5
2017-Sep-19 19:01N 43°30' W 003°12'612.6
2017-Sep-19 18:31N 43°25' W 003°06'3 6.2
2017-Sep-19 18:01N 43°22' W 003°06'0 0.2
2017-Sep-19 17:31N 43°22' W 003°06'0 0.0
2017-Sep-19 16:59N 43°22' W 003°06'0 0.0
2017-Sep-19 16:29N 43°22' W 003°06'0 0.0
2017-Sep-19 15:59N 43°22' W 003°06'0 0.0
2017-Sep-19 12:41N 43°22' W 003°06'0 0.0
2017-Sep-19 12:29N 43°22' W 003°06'0 0.0
2017-Sep-19 11:59N 43°22' W 003°06'0 0.0
2017-Sep-19 11:26N 43°22' W 003°06'0 0.0
2017-Sep-19 10:59N 43°22' W 003°06'0 0.0
2017-Sep-19 10:29N 43°22' W 003°06'0 0.0
2017-Sep-19 09:59N 43°22' W 003°06'0 0.0
2017-Sep-19 09:29N 43°22' W 003°06'0 0.0
2017-Sep-19 08:59N 43°22' W 003°06'0 0.0
2017-Sep-19 08:29N 43°22' W 003°06'0 0.0
2017-Sep-19 07:59N 43°22' W 003°06'0 0.0
2017-Sep-19 07:29N 43°22' W 003°06'0 0.0
2017-Sep-19 06:59N 43°22' W 003°06'0 0.0
2017-Sep-19 06:29N 43°22' W 003°06'0 0.0
2017-Sep-19 05:59N 43°22' W 003°06'0 0.0
2017-Sep-19 05:29N 43°22' W 003°06'0 0.0
2017-Sep-19 04:59N 43°22' W 003°06'0 0.0
2017-Sep-19 04:29N 43°22' W 003°06'0 0.0
2017-Sep-19 03:59N 43°22' W 003°06'0 0.0
2017-Sep-19 03:29N 43°22' W 003°06'0 0.0
2017-Sep-19 02:59N 43°22' W 003°06'0 0.0
2017-Sep-19 02:29N 43°22' W 003°06'0 0.0
2017-Sep-19 01:59N 43°22' W 003°06'0 0.0
2017-Sep-19 01:29N 43°22' W 003°06'0 0.0
2017-Sep-19 00:59N 43°22' W 003°06'0 0.0
2017-Sep-19 00:29N 43°22' W 003°06'0 0.0
2017-Sep-18 23:59N 43°22' W 003°06'0 0.0
2017-Sep-18 23:29N 43°22' W 003°06'0 0.0
2017-Sep-18 22:59N 43°22' W 003°06'0 0.0
2017-Sep-18 22:29N 43°22' W 003°06'0 0.0
2017-Sep-18 21:59N 43°22' W 003°06'0 0.0
2017-Sep-18 21:29N 43°22' W 003°06'0 0.0
2017-Sep-18 20:59N 43°22' W 003°06'0 0.0
2017-Sep-18 20:29N 43°22' W 003°06'0 0.0
2017-Sep-18 19:59N 43°22' W 003°06'0 0.0
2017-Sep-18 19:29N 43°22' W 003°06'0 0.0
2017-Sep-18 18:59N 43°22' W 003°06'0 0.0
2017-Sep-18 18:29N 43°22' W 003°06'0 0.0
2017-Sep-18 17:59N 43°22' W 003°06'0 0.0
2017-Sep-18 17:29N 43°22' W 003°06'0 0.0
2017-Sep-18 16:56N 43°22' W 003°06'0 0.0
2017-Sep-18 16:29N 43°22' W 003°06'0 0.0
2017-Sep-18 15:59N 43°22' W 003°06'0 0.0
2017-Sep-18 15:29N 43°22' W 003°06'0 0.1
2017-Sep-18 15:00N 43°22' W 003°06'1 2.2
2017-Sep-18 14:31N 43°23' W 003°05'1 2.1
2017-Sep-18 13:59N 43°24' W 003°04'0 0.2
2017-Sep-18 13:29N 43°24' W 003°04'0 0.0
2017-Sep-18 12:59N 43°24' W 003°04'0 0.0
2017-Sep-18 12:29N 43°24' W 003°04'0 0.0
2017-Sep-18 11:59N 43°24' W 003°04'0 0.0
2017-Sep-18 11:29N 43°24' W 003°04'0 0.1
2017-Sep-18 10:59N 43°24' W 003°04'0 0.1
2017-Sep-18 10:29N 43°24' W 003°04'0 0.1
2017-Sep-18 09:59N 43°24' W 003°04'0 0.1
2017-Sep-18 09:29N 43°24' W 003°04'0 0.0
2017-Sep-18 08:59N 43°24' W 003°04'0 0.1
2017-Sep-18 08:29N 43°24' W 003°04'0 0.0
2017-Sep-18 07:59N 43°24' W 003°04'0 0.1
2017-Sep-18 07:29N 43°24' W 003°04'0 0.1
2017-Sep-18 06:59N 43°24' W 003°04'0 0.0
2017-Sep-18 06:29N 43°24' W 003°04'0 0.0
2017-Sep-18 05:59N 43°24' W 003°04'0 0.1
2017-Sep-18 05:29N 43°24' W 003°04'0 0.1
2017-Sep-18 04:59N 43°24' W 003°04'0 0.0
2017-Sep-18 04:29N 43°24' W 003°04'0 0.0
2017-Sep-18 03:59N 43°24' W 003°04'0 0.1
2017-Sep-18 03:29N 43°24' W 003°04'0 0.0
2017-Sep-18 02:59N 43°24' W 003°04'0 0.0
2017-Sep-18 02:29N 43°24' W 003°04'0 0.0
2017-Sep-18 01:59N 43°24' W 003°04'0 0.0
2017-Sep-18 01:29N 43°24' W 003°04'0 0.0
2017-Sep-18 00:59N 43°24' W 003°04'0 0.0
2017-Sep-18 00:29N 43°24' W 003°04'0 0.0
2017-Sep-17 23:59N 43°24' W 003°04'0 0.0
2017-Sep-17 23:29N 43°24' W 003°04'0 0.0
2017-Sep-17 22:59N 43°24' W 003°04'0 0.0
2017-Sep-17 22:29N 43°24' W 003°04'0 0.0
2017-Sep-17 21:59N 43°24' W 003°04'0 0.0
2017-Sep-17 21:29N 43°24' W 003°04'0 0.0
2017-Sep-17 20:59N 43°24' W 003°04'0 0.0
2017-Sep-17 20:29N 43°24' W 003°04'0 0.0
2017-Sep-17 19:59N 43°24' W 003°04'0 0.0
2017-Sep-17 19:29N 43°24' W 003°04'0 0.0
2017-Sep-17 18:59N 43°24' W 003°04'0 0.0
2017-Sep-17 18:29N 43°24' W 003°04'0 0.0
2017-Sep-17 17:59N 43°24' W 003°04'0 0.0
2017-Sep-17 17:29N 43°24' W 003°04'0 0.0
2017-Sep-17 16:59N 43°24' W 003°04'0 0.0
2017-Sep-17 16:29N 43°24' W 003°04'0 0.0
2017-Sep-17 15:59N 43°24' W 003°04'0 0.0
2017-Sep-17 15:29N 43°24' W 003°04'0 0.0
2017-Sep-17 14:59N 43°24' W 003°04'0 0.0
2017-Sep-17 14:29N 43°24' W 003°04'0 0.1
2017-Sep-17 13:59N 43°24' W 003°04'0 0.0
2017-Sep-17 13:29N 43°24' W 003°04'0 0.0
2017-Sep-17 12:59N 43°24' W 003°04'0 0.0
2017-Sep-17 12:29N 43°24' W 003°04'0 0.0
2017-Sep-17 11:59N 43°24' W 003°04'0 0.0
2017-Sep-17 11:29N 43°24' W 003°04'0 0.0
2017-Sep-17 10:59N 43°24' W 003°04'0 0.1
2017-Sep-17 10:29N 43°24' W 003°04'0 0.1
2017-Sep-17 09:59N 43°24' W 003°04'0 0.0
2017-Sep-17 09:29N 43°24' W 003°04'0 0.1
2017-Sep-17 08:59N 43°24' W 003°04'0 0.0
2017-Sep-17 08:29N 43°24' W 003°04'0 0.0
2017-Sep-17 07:59N 43°24' W 003°04'0 0.0
2017-Sep-17 07:29N 43°24' W 003°04'0 0.1
2017-Sep-17 06:59N 43°24' W 003°04'0 0.0
2017-Sep-17 06:29N 43°24' W 003°04'0 0.1
2017-Sep-17 05:59N 43°24' W 003°04'0 0.1
2017-Sep-17 05:29N 43°24' W 003°04'0 0.1
2017-Sep-17 04:59N 43°24' W 003°04'0 0.0
2017-Sep-17 04:29N 43°24' W 003°04'0 0.0
2017-Sep-17 03:59N 43°24' W 003°04'0 0.0
2017-Sep-17 03:29N 43°24' W 003°04'0 0.0
2017-Sep-17 02:59N 43°24' W 003°04'0 0.0
2017-Sep-17 02:29N 43°24' W 003°04'0 0.0
2017-Sep-17 01:59N 43°24' W 003°04'0 0.0
2017-Sep-17 01:29N 43°24' W 003°04'0 0.0
2017-Sep-17 00:59N 43°24' W 003°04'0 0.1
2017-Sep-17 00:29N 43°24' W 003°04'0 0.1
2017-Sep-16 23:59N 43°24' W 003°04'0 0.0
2017-Sep-16 23:29N 43°24' W 003°04'0 0.1
2017-Sep-16 22:59N 43°24' W 003°04'0 0.1
2017-Sep-16 22:29N 43°24' W 003°04'0 0.0
2017-Sep-16 21:59N 43°24' W 003°04'0 0.0
2017-Sep-16 21:29N 43°24' W 003°04'0 0.0
2017-Sep-16 20:59N 43°24' W 003°04'0 0.0
2017-Sep-16 20:29N 43°24' W 003°04'0 0.0
2017-Sep-16 19:59N 43°24' W 003°04'0 0.0
2017-Sep-16 19:29N 43°24' W 003°04'0 0.0
2017-Sep-16 18:59N 43°24' W 003°04'0 0.0
2017-Sep-16 18:29N 43°24' W 003°04'0 0.0
2017-Sep-16 17:59N 43°24' W 003°04'0 0.0
2017-Sep-16 17:29N 43°24' W 003°04'0 0.0
2017-Sep-16 16:59N 43°24' W 003°04'0 0.0
2017-Sep-16 16:29N 43°24' W 003°04'0 0.1
2017-Sep-16 15:59N 43°24' W 003°04'0 0.1
2017-Sep-16 15:29N 43°24' W 003°04'0 0.4
2017-Sep-16 14:59N 43°24' W 003°04'2 3.4
2017-Sep-16 14:30N 43°26' W 003°05'5 9.9
2017-Sep-16 14:00N 43°28' W 003°11'4 8.1
2017-Sep-16 13:30N 43°31' W 003°14'611.2
2017-Sep-16 13:00N 43°35' W 003°20'612.6
2017-Sep-16 12:30N 43°40' W 003°25'612.8
2017-Sep-16 12:00N 43°45' W 003°31'712.8
2017-Sep-16 11:29N 43°50' W 003°37'5812.5
2017-Sep-16 06:48N 43°55' W 004°58'412.7
2017-Sep-16 06:30N 43°55' W 005°04'712.7
2017-Sep-16 05:58N 43°55' W 005°13'612.6
2017-Sep-16 05:30N 43°55' W 005°21'612.4
2017-Sep-16 05:00N 43°55' W 005°30'612.3
2017-Sep-16 04:30N 43°56' W 005°38'712.7
2017-Sep-16 03:59N 43°56' W 005°47'712.9
2017-Sep-16 03:27N 43°57' W 005°57'612.8
2017-Sep-16 02:59N 43°57' W 006°05'612.6
2017-Sep-16 02:30N 43°57' W 006°14'  

Dump ship's entire track history